Photometre #849[NE_1.6_Dp] Loftus_MO AOT

File : 20210608_849.hum

08/06/2021,04:47:33,TEMP=22.5,BA=6.20,STAT.A,ExtBa=14.50
08/06/2021,04:52:31,TEMP=22.7,BA=6.04,STAT.A,ExtBa=14.20
08/06/2021,04:58:15,TEMP=22.6,BA=6.04,STAT.A,ExtBa=14.40
08/06/2021,05:04:59,TEMP=22.8,BA=5.96,STAT.A,ExtBa=14.50
08/06/2021,05:13:00,TEMP=23.3,BA=6.08,STAT.A,ExtBa=14.50
08/06/2021,05:22:42,TEMP=23.8,BA=6.24,STAT.A,ExtBa=14.50
08/06/2021,05:34:44,TEMP=23.7,BA=6.20,STAT.B,ExtBa=14.50
08/06/2021,05:40:25,TEMP=23.6,BA=6.20,STAT.A,ExtBa=14.50
08/06/2021,05:46:42,TEMP=23.5,BA=6.20,STAT.A,ExtBa=14.50
08/06/2021,05:53:43,TEMP=23.1,BA=6.16,STAT.A,ExtBa=14.40
08/06/2021,06:01:36,TEMP=22.6,BA=6.16,STAT.A,ExtBa=14.40
08/06/2021,06:10:31,TEMP=22.5,BA=6.16,STAT.C,ExtBa=14.40
08/06/2021,06:20:45,TEMP=23.9,BA=6.16,STAT.A,ExtBa=14.40
08/06/2021,06:32:35,TEMP=24.5,BA=6.12,STAT.A,ExtBa=14.40
08/06/2021,06:46:30,TEMP=24.5,BA=6.12,STAT.A,ExtBa=14.30
08/06/2021,07:03:10,TEMP=22.4,BA=5.84,STAT.A,ExtBa=14.20
08/06/2021,07:23:36,TEMP=22.0,BA=6.00,STAT.B,ExtBa=14.20
08/06/2021,08:05:33,TEMP=21.6,BA=5.84,STAT.B,ExtBa=14.00
08/06/2021,08:17:44,TEMP=21.2,BA=5.76,STAT.D,ExtBa=14.00
08/06/2021,08:32:44,TEMP=20.9,BA=5.76,STAT.D,ExtBa=14.00
08/06/2021,08:47:44,TEMP=20.8,BA=5.72,STAT.D,ExtBa=13.90
08/06/2021,09:02:46,TEMP=20.6,BA=5.68,STAT.F,ExtBa=13.80
08/06/2021,09:17:44,TEMP=20.7,BA=5.68,STAT.D,ExtBa=13.70
08/06/2021,09:32:44,TEMP=19.9,BA=5.68,STAT.D,ExtBa=13.50
08/06/2021,09:47:44,TEMP=19.5,BA=5.68,STAT.D,ExtBa=13.40
08/06/2021,10:02:46,TEMP=18.8,BA=5.68,STAT.F,ExtBa=13.30
08/06/2021,18:25:05,TEMP=18.5,BA=5.52,STAT.A,ExtBa=13.20
08/06/2021,18:30:45,TEMP=18.4,BA=5.68,STAT.B,ExtBa=13.10
08/06/2021,18:43:40,TEMP=18.5,BA=4.84,STAT.A,ExtBa=12.80
08/06/2021,18:52:12,STAT.r
08/06/2021,19:00:13,STAT.r
08/06/2021,19:06:56,STAT.r
08/06/2021,19:12:42,STAT.r
08/06/2021,19:17:39,STAT.r
08/06/2021,20:03:55,STAT.r